createdAt,value
2018-12-26T04:42:40.438Z,0.00
2018-12-26T04:47:47.230Z,0.00
2018-12-26T04:48:44.637Z,0.00
2018-12-26T04:49:45.281Z,0.00
2018-12-26T04:50:55.861Z,0.00
2018-12-26T06:11:04.579Z,0.00
2018-12-26T06:11:45.555Z,0.00
2018-12-26T06:12:33.521Z,0.00
2018-12-26T07:21:33.636Z,160.00
2018-12-26T07:24:52.153Z,184.00
2018-12-26T07:26:53.326Z,200.00
2018-12-26T07:28:08.774Z,208.00
2018-12-26T07:29:02.539Z,220.00
2018-12-26T07:29:57.475Z,236.00
2018-12-26T07:30:55.498Z,248.00
2018-12-26T07:31:56.306Z,260.00
2018-12-26T07:32:56.447Z,272.00
2018-12-26T07:33:55.125Z,284.00
2018-12-26T07:34:55.171Z,288.00
2018-12-26T07:35:54.125Z,304.00
2018-12-26T07:36:55.698Z,320.00
2018-12-26T07:37:53.087Z,340.00
2018-12-26T07:38:52.953Z,364.00
2018-12-26T07:39:52.744Z,388.00
2018-12-26T07:40:53.227Z,412.00
2018-12-26T07:41:52.950Z,432.00
2018-12-26T07:42:54.392Z,448.00
2018-12-26T07:43:52.901Z,460.00
2018-12-26T07:44:56.328Z,468.00
2018-12-26T07:45:53.866Z,484.00
2018-12-26T07:46:53.513Z,500.00
2018-12-26T07:49:36.796Z,532.00
2018-12-26T07:50:39.008Z,536.00
2018-12-26T07:51:36.496Z,544.00
2018-12-26T07:52:36.454Z,560.00
2018-12-26T07:53:36.139Z,580.00
2018-12-26T07:54:36.309Z,612.00
2018-12-26T07:55:36.235Z,632.00
2018-12-26T07:56:36.585Z,652.00
2018-12-26T07:57:36.651Z,688.00
2018-12-26T07:58:37.073Z,720.00
2018-12-26T07:59:37.693Z,748.00
2018-12-26T08:00:42.506Z,760.00
2018-12-26T08:21:07.211Z,1356.00
2018-12-26T08:22:08.051Z,1468.00
2018-12-26T08:24:06.286Z,1688.00
2018-12-26T08:25:06.504Z,1852.00
2018-12-26T08:26:06.970Z,1912.00
2018-12-26T08:27:06.480Z,1720.00
2018-12-26T08:28:07.456Z,1484.00
2018-12-26T08:29:07.279Z,1424.00
2018-12-26T08:30:07.338Z,1540.00
2018-12-26T08:31:07.474Z,1788.00
2018-12-26T08:32:07.471Z,2080.00
2018-12-26T08:33:19.732Z,2220.00
2018-12-26T08:34:10.224Z,2256.00
2018-12-26T08:35:10.593Z,2328.00
2018-12-26T08:36:10.290Z,2380.00
2018-12-26T08:37:10.641Z,2364.00
2018-12-26T08:38:11.085Z,2092.00
2018-12-26T08:39:10.754Z,2032.00
2018-12-26T08:40:11.736Z,2232.00
2018-12-26T08:41:11.228Z,2496.00
2018-12-26T08:42:11.560Z,2776.00
2018-12-26T08:43:10.249Z,2768.00
2018-12-26T08:44:10.005Z,2396.00
2018-12-26T08:45:09.909Z,2032.00
2018-12-26T08:46:10.199Z,1756.00
2018-12-26T08:47:10.487Z,1592.00
2018-12-26T08:48:10.495Z,1648.00
2018-12-26T08:49:11.042Z,1920.00
2018-12-26T08:50:10.877Z,2264.00
2018-12-26T08:51:11.156Z,2752.00
2018-12-26T08:52:11.613Z,3052.00
2018-12-26T08:53:11.491Z,3188.00
2018-12-26T08:54:11.627Z,3248.00
2018-12-26T08:55:11.727Z,3308.00
2018-12-26T08:56:11.785Z,3464.00
2018-12-26T08:57:12.298Z,3752.00
2018-12-26T08:58:12.253Z,3964.00
2018-12-26T08:59:12.696Z,3972.00
2018-12-26T09:00:12.723Z,3728.00
2018-12-26T09:01:12.862Z,3096.00
2018-12-26T09:02:13.190Z,2800.00
2018-12-26T09:03:13.026Z,2948.00
2018-12-26T09:04:13.444Z,3144.00
2018-12-26T09:05:13.380Z,3108.00
2018-12-26T09:06:13.573Z,2972.00
2018-12-26T09:31:06.041Z,3644.00
2018-12-26T09:32:08.390Z,3996.00
2018-12-26T09:33:16.823Z,4016.00
2018-12-26T09:34:17.740Z,3968.00
2018-12-26T09:42:31.461Z,4064.00
2018-12-26T09:57:07.724Z,4064.00
2018-12-26T09:59:27.215Z,4536.00
2018-12-26T10:09:07.950Z,4180.00
2018-12-26T10:10:22.178Z,4348.00
2018-12-26T10:11:10.983Z,4736.00
2018-12-26T10:12:10.640Z,5172.00
2018-12-26T10:13:18.292Z,5292.00
2018-12-26T10:14:13.267Z,4924.00
2018-12-26T10:16:43.650Z,4628.00
2018-12-26T12:06:22.899Z,3948.00
2018-12-26T12:07:22.552Z,4196.00
2018-12-26T12:08:30.974Z,4584.00
2018-12-26T13:45:48.481Z,1004.00
2018-12-26T14:30:28.189Z,404.00
2018-12-26T16:55:28.356Z,0.00
2018-12-26T16:56:28.732Z,0.00
2018-12-26T17:11:05.905Z,0.00
2018-12-26T17:14:19.240Z,0.00
2018-12-26T17:20:41.492Z,0.00
2018-12-26T17:21:43.475Z,0.00
2018-12-26T18:34:36.949Z,0.00
2018-12-26T18:35:34.757Z,0.00
2018-12-26T18:36:26.736Z,0.00
2018-12-26T18:39:31.463Z,0.00
2018-12-26T18:40:32.552Z,0.00
2018-12-26T18:57:28.443Z,0.00
2018-12-26T18:58:31.631Z,0.00
2018-12-26T18:59:37.274Z,0.00
2018-12-26T19:00:34.581Z,0.00
2018-12-26T19:37:00.827Z,0.00
2018-12-26T19:39:40.769Z,0.00
2018-12-26T19:40:50.339Z,0.00
2018-12-26T20:03:30.636Z,0.00
2018-12-26T20:08:05.158Z,0.00
2018-12-26T20:13:25.872Z,0.00
2018-12-26T20:21:05.341Z,0.00
2018-12-26T20:21:58.960Z,0.00
2018-12-26T20:23:01.490Z,0.00
2018-12-26T20:23:58.837Z,0.00
2018-12-26T20:25:02.503Z,0.00
2018-12-26T20:25:59.161Z,0.00
2018-12-26T20:27:01.120Z,0.00
2018-12-26T20:28:01.415Z,0.00
2018-12-26T20:29:00.363Z,0.00
2018-12-26T20:30:10.851Z,0.00
2018-12-26T20:31:00.682Z,0.00
2018-12-26T20:32:07.546Z,0.00
2018-12-26T20:33:00.008Z,0.00
2018-12-26T20:34:02.667Z,0.00
2018-12-26T20:35:02.079Z,0.00
2018-12-26T20:36:02.083Z,0.00
2018-12-26T20:36:59.869Z,0.00
2018-12-26T20:38:30.022Z,0.00
2018-12-26T20:39:55.496Z,0.00
2018-12-26T20:40:19.013Z,0.00
2018-12-26T20:41:15.489Z,0.00
2018-12-26T20:42:08.726Z,0.00
2018-12-26T20:57:32.068Z,0.00
2018-12-26T21:00:32.370Z,0.00
2018-12-26T21:01:32.375Z,0.00
2018-12-26T21:02:33.197Z,0.00
2018-12-26T21:06:29.237Z,0.00
2018-12-26T21:07:31.209Z,0.00
2018-12-26T21:08:29.870Z,0.00
2018-12-26T21:12:33.335Z,0.00
2018-12-26T21:13:33.405Z,0.00
2018-12-26T21:14:30.879Z,0.00
2018-12-26T21:15:31.201Z,0.00
2018-12-26T21:16:41.835Z,0.00
2018-12-26T21:17:31.780Z,0.00
2018-12-26T21:18:31.000Z,0.00
2018-12-26T21:19:31.304Z,0.00
2018-12-26T21:22:11.375Z,0.00
2018-12-26T21:23:12.362Z,0.00
2018-12-26T21:50:46.320Z,0.00
2018-12-26T21:51:42.433Z,0.00
2018-12-26T21:52:41.805Z,0.00
2018-12-26T21:53:44.125Z,0.00
2018-12-26T21:54:38.594Z,0.00
2018-12-26T21:55:40.362Z,0.00
2018-12-26T21:57:43.164Z,0.00
2018-12-26T22:04:07.201Z,0.00
2018-12-26T22:05:20.843Z,0.00
2018-12-26T22:06:05.708Z,0.00
2018-12-26T22:07:02.310Z,0.00
2018-12-26T22:08:32.038Z,0.00
2018-12-26T22:09:13.390Z,0.00
2018-12-26T22:10:01.311Z,0.00
2018-12-26T22:10:59.563Z,0.00
2018-12-26T22:12:01.052Z,0.00
2018-12-26T22:12:58.825Z,0.00
2018-12-26T22:16:00.468Z,0.00
2018-12-26T22:16:59.493Z,0.00
2018-12-26T22:17:59.968Z,0.00
2018-12-26T22:19:00.951Z,0.00
2018-12-26T22:20:02.057Z,0.00
2018-12-26T22:21:17.768Z,0.00
2018-12-26T22:22:04.514Z,0.00
2018-12-26T22:23:09.590Z,0.00
2018-12-26T22:24:06.739Z,0.00
2018-12-26T22:25:05.771Z,0.00
2018-12-26T22:26:05.913Z,0.00
2018-12-26T22:27:02.456Z,0.00
2018-12-26T22:29:05.057Z,0.00
2018-12-26T22:30:09.343Z,0.00
2018-12-26T22:31:04.472Z,0.00
2018-12-26T22:32:02.360Z,0.00
2018-12-26T22:33:16.964Z,0.00
2018-12-26T22:34:04.909Z,0.00
2018-12-26T22:35:04.555Z,0.00
2018-12-26T22:36:08.301Z,0.00
2018-12-26T22:37:04.821Z,0.00
2018-12-26T22:38:04.135Z,0.00
2018-12-26T22:40:07.824Z,0.00
2018-12-26T22:41:13.020Z,0.00
2018-12-26T22:42:04.397Z,0.00
2018-12-26T22:43:18.556Z,0.00
